createdAt,value
2023-04-07T00:00:08.368Z,3.09
2023-04-07T00:00:26.985Z,3.10
2023-04-07T00:00:39.770Z,3.09
2023-04-07T00:00:52.514Z,3.10
2023-04-07T00:01:05.525Z,3.11
2023-04-07T00:01:18.098Z,3.11
2023-04-07T00:01:30.191Z,3.10
2023-04-07T00:01:42.658Z,3.11
2023-04-07T00:01:55.522Z,3.10
2023-04-07T00:02:08.096Z,3.11
2023-04-07T00:02:20.554Z,3.09
2023-04-07T00:02:32.996Z,3.12
2023-04-07T00:02:45.157Z,3.10
2023-04-07T00:02:57.909Z,3.11
2023-04-07T00:03:10.554Z,3.11
2023-04-07T00:03:23.141Z,3.10
2023-04-07T00:03:35.948Z,3.11
2023-04-07T00:03:48.790Z,3.10
2023-04-07T00:04:01.301Z,3.10
2023-04-07T00:04:14.148Z,3.10
2023-04-07T00:04:26.421Z,3.11
2023-04-07T00:04:39.030Z,3.09
2023-04-07T00:04:51.091Z,3.09
2023-04-07T00:05:03.557Z,3.10
2023-04-07T00:05:15.522Z,3.10
2023-04-07T00:05:30.330Z,3.09
2023-04-07T00:05:42.783Z,3.09
2023-04-07T00:05:55.168Z,3.09
2023-04-07T00:06:07.694Z,3.08
2023-04-07T00:06:20.169Z,3.07
2023-04-07T00:06:32.464Z,3.07
2023-04-07T00:06:44.986Z,3.07
2023-04-07T00:06:57.396Z,3.07
2023-04-07T00:07:10.011Z,3.08
2023-04-07T00:07:22.532Z,3.07
2023-04-07T00:07:44.956Z,3.08
2023-04-07T00:08:05.743Z,3.08
2023-04-07T00:08:17.864Z,3.05
2023-04-07T00:08:30.042Z,3.09
2023-04-07T00:08:42.520Z,3.09
2023-04-07T00:08:54.857Z,3.10
2023-04-07T00:09:07.169Z,3.10
2023-04-07T00:09:20.032Z,3.10
2023-04-07T00:09:32.460Z,3.11
2023-04-07T00:09:44.867Z,3.10
2023-04-07T00:09:57.179Z,3.10
2023-04-07T00:10:10.150Z,3.11
2023-04-07T00:10:22.544Z,3.09
2023-04-07T00:10:35.044Z,3.12
2023-04-07T00:10:47.780Z,3.12
2023-04-07T00:11:00.187Z,3.11
2023-04-07T00:11:13.226Z,3.12
2023-04-07T00:11:25.981Z,3.10
2023-04-07T00:11:38.179Z,3.11
2023-04-07T00:11:50.406Z,3.12
2023-04-07T00:12:02.661Z,3.12
2023-04-07T00:12:15.204Z,3.12
2023-04-07T00:12:27.309Z,3.13
2023-04-07T00:12:39.477Z,3.12
2023-04-07T00:12:51.643Z,3.11
2023-04-07T00:13:04.101Z,3.11
2023-04-07T00:13:16.593Z,3.12
2023-04-07T00:13:29.520Z,3.12
2023-04-07T00:13:42.670Z,3.12
2023-04-07T00:13:55.270Z,3.10
2023-04-07T00:14:07.849Z,3.12
2023-04-07T00:14:20.011Z,3.11
2023-04-07T00:14:32.341Z,3.12
2023-04-07T00:14:45.339Z,3.10
2023-04-07T00:14:57.679Z,3.13
2023-04-07T00:15:10.653Z,3.14
2023-04-07T00:15:22.856Z,3.13
2023-04-07T00:15:35.053Z,3.13
2023-04-07T00:15:47.626Z,3.16
2023-04-07T00:16:00.522Z,3.14
2023-04-07T00:16:12.627Z,3.15
2023-04-07T00:16:26.465Z,3.13
2023-04-07T00:16:39.646Z,3.14
2023-04-07T00:16:51.844Z,3.15
2023-04-07T00:17:04.414Z,3.15
2023-04-07T00:17:16.617Z,3.16
2023-04-07T00:17:29.059Z,3.16
2023-04-07T00:17:41.587Z,3.16
2023-04-07T00:17:54.021Z,3.17
2023-04-07T00:18:06.691Z,3.18
2023-04-07T00:18:19.797Z,3.18
2023-04-07T00:18:32.420Z,3.18
2023-04-07T00:18:44.496Z,3.18
2023-04-07T00:18:57.020Z,3.19
2023-04-07T00:19:09.893Z,3.19
2023-04-07T00:19:23.151Z,3.20
2023-04-07T00:19:35.829Z,3.21
2023-04-07T00:19:48.447Z,3.21
2023-04-07T00:20:00.682Z,3.22
2023-04-07T00:20:13.019Z,3.22
2023-04-07T00:20:25.371Z,3.22
2023-04-07T00:20:39.256Z,3.23
2023-04-07T00:20:51.377Z,3.23
2023-04-07T00:21:03.875Z,3.23
2023-04-07T00:21:16.392Z,3.23
2023-04-07T00:21:28.588Z,3.22
2023-04-07T00:21:40.416Z,3.22
2023-04-07T00:21:53.590Z,3.24
2023-04-07T00:22:05.692Z,3.22
2023-04-07T00:22:18.091Z,3.23
2023-04-07T00:22:31.024Z,3.21
2023-04-07T00:22:43.378Z,3.23
2023-04-07T00:22:55.702Z,3.22
2023-04-07T00:23:08.420Z,3.21
2023-04-07T00:23:20.835Z,3.21
2023-04-07T00:23:32.914Z,3.20
2023-04-07T00:23:45.188Z,3.21
2023-04-07T00:23:57.895Z,3.21
2023-04-07T00:24:10.815Z,3.22
2023-04-07T00:24:33.285Z,3.21
2023-04-07T00:24:47.304Z,3.21
2023-04-07T00:25:00.851Z,3.22
2023-04-07T00:25:12.983Z,3.22
2023-04-07T00:25:25.047Z,3.22
2023-04-07T00:25:37.296Z,3.23
2023-04-07T00:25:49.280Z,3.23
2023-04-07T00:26:02.076Z,3.22
2023-04-07T00:26:14.688Z,3.23
2023-04-07T00:26:29.495Z,3.22
2023-04-07T00:26:42.459Z,3.22
2023-04-07T00:26:54.977Z,3.21
2023-04-07T00:27:07.149Z,3.23
2023-04-07T00:27:19.190Z,3.22
2023-04-07T00:27:31.324Z,3.24
2023-04-07T00:27:44.031Z,3.22
2023-04-07T00:27:56.249Z,3.24
2023-04-07T00:28:08.899Z,3.24
2023-04-07T00:28:20.890Z,3.24
2023-04-07T00:28:33.271Z,3.24
2023-04-07T00:28:45.426Z,3.25
2023-04-07T00:28:57.974Z,3.25
2023-04-07T00:29:10.187Z,3.25
2023-04-07T00:29:22.522Z,3.25
2023-04-07T00:29:35.238Z,3.25
2023-04-07T00:29:48.155Z,3.25
2023-04-07T00:30:00.317Z,3.25
2023-04-07T00:30:14.148Z,3.25
2023-04-07T00:30:26.657Z,3.26
2023-04-07T00:30:39.336Z,3.25
2023-04-07T00:30:52.108Z,3.25
2023-04-07T00:31:04.174Z,3.26
2023-04-07T00:31:16.568Z,3.26
2023-04-07T00:31:28.807Z,3.27
2023-04-07T00:31:40.980Z,3.26
2023-04-07T00:31:53.713Z,3.27
2023-04-07T00:32:06.088Z,3.27
2023-04-07T00:32:18.512Z,3.26
2023-04-07T00:32:30.719Z,3.27
2023-04-07T00:32:45.642Z,3.29
2023-04-07T00:32:57.961Z,3.27
2023-04-07T00:33:10.404Z,3.27
2023-04-07T00:33:22.724Z,3.28
2023-04-07T00:33:35.605Z,3.30
2023-04-07T00:33:48.121Z,3.30
2023-04-07T00:34:00.864Z,3.30
2023-04-07T00:34:13.416Z,3.31
2023-04-07T00:34:26.877Z,3.31
2023-04-07T00:34:40.249Z,3.33
2023-04-07T00:34:52.557Z,3.34
2023-04-07T00:35:05.140Z,3.33
2023-04-07T00:35:17.978Z,3.31
2023-04-07T00:35:30.061Z,3.34
2023-04-07T00:35:44.021Z,3.34
2023-04-07T00:35:56.305Z,3.33
2023-04-07T00:36:09.379Z,3.34
2023-04-07T00:36:22.377Z,3.33
2023-04-07T00:36:34.693Z,3.33
2023-04-07T00:36:46.522Z,3.32
2023-04-07T00:36:58.748Z,3.33
2023-04-07T00:37:11.059Z,3.32
2023-04-07T00:37:23.157Z,3.32
2023-04-07T00:37:36.383Z,3.31
2023-04-07T00:37:48.519Z,3.30
2023-04-07T00:38:01.046Z,3.32
2023-04-07T00:38:13.881Z,3.31
2023-04-07T00:38:26.140Z,3.31
2023-04-07T00:38:37.901Z,3.30
2023-04-07T00:38:50.848Z,3.30
2023-04-07T00:39:03.711Z,3.29
2023-04-07T00:39:16.461Z,3.29
2023-04-07T00:39:28.436Z,3.28
2023-04-07T00:39:40.858Z,3.29
2023-04-07T00:39:53.193Z,3.28
2023-04-07T00:40:06.181Z,3.28
2023-04-07T00:40:18.451Z,3.27
2023-04-07T00:40:31.360Z,3.29
2023-04-07T00:40:43.245Z,3.27
2023-04-07T00:40:58.021Z,3.27
2023-04-07T00:41:10.350Z,3.27
2023-04-07T00:41:23.007Z,3.27
2023-04-07T00:41:36.078Z,3.27
2023-04-07T00:41:48.111Z,3.28
2023-04-07T00:42:00.721Z,3.26
2023-04-07T00:42:14.570Z,3.25
2023-04-07T00:42:26.912Z,3.26
2023-04-07T00:42:40.473Z,3.25
2023-04-07T00:42:53.373Z,3.25
2023-04-07T00:43:05.613Z,3.26
2023-04-07T00:43:18.362Z,3.26
2023-04-07T00:43:31.097Z,3.25
2023-04-07T00:43:44.369Z,3.25
2023-04-07T00:43:57.072Z,3.25
2023-04-07T00:44:09.113Z,3.25
2023-04-07T00:44:21.859Z,3.26
2023-04-07T00:44:33.646Z,3.25
2023-04-07T00:44:46.278Z,3.24
2023-04-07T00:44:59.118Z,3.24
2023-04-07T00:45:12.527Z,3.25
2023-04-07T00:45:25.967Z,3.24
2023-04-07T00:45:38.429Z,3.23
2023-04-07T00:45:51.016Z,3.23
2023-04-07T00:46:03.392Z,3.22
2023-04-07T00:46:15.476Z,3.22
2023-04-07T00:46:28.333Z,3.22
2023-04-07T00:46:42.075Z,3.21
2023-04-07T00:46:54.022Z,3.21
2023-04-07T00:47:06.759Z,3.21
2023-04-07T00:47:20.082Z,3.21
2023-04-07T00:47:32.560Z,3.21
2023-04-07T00:47:45.133Z,3.20
2023-04-07T00:47:57.825Z,3.21
2023-04-07T00:48:10.634Z,3.21
2023-04-07T00:48:23.069Z,3.21
2023-04-07T00:48:36.722Z,3.19
2023-04-07T00:48:49.239Z,3.20
2023-04-07T00:49:01.784Z,3.20
2023-04-07T00:49:14.211Z,3.21
2023-04-07T00:49:26.940Z,3.20
2023-04-07T00:49:39.413Z,3.20
2023-04-07T00:49:52.143Z,3.22
2023-04-07T00:50:04.603Z,3.23
2023-04-07T00:50:16.922Z,3.22
2023-04-07T00:50:29.388Z,3.22
2023-04-07T00:50:41.486Z,3.21
2023-04-07T00:50:55.122Z,3.21
2023-04-07T00:51:10.095Z,3.22
2023-04-07T00:51:22.780Z,3.21
2023-04-07T00:51:36.023Z,3.21
2023-04-07T00:51:48.549Z,3.22
2023-04-07T00:52:01.531Z,3.21
2023-04-07T00:52:15.281Z,3.22
2023-04-07T00:52:28.316Z,3.22
2023-04-07T00:52:41.398Z,3.21
2023-04-07T00:52:53.737Z,3.22
2023-04-07T00:53:07.037Z,3.22
2023-04-07T00:53:20.194Z,3.22
2023-04-07T00:53:33.267Z,3.20
2023-04-07T00:53:45.725Z,3.21
2023-04-07T00:53:58.452Z,3.21
2023-04-07T00:54:11.062Z,3.21
2023-04-07T00:54:24.668Z,3.20
2023-04-07T00:54:37.381Z,3.22
2023-04-07T00:54:49.764Z,3.21
2023-04-07T00:55:02.721Z,3.21
2023-04-07T00:55:15.614Z,3.22
2023-04-07T00:55:28.525Z,3.21
2023-04-07T00:55:40.985Z,3.22
2023-04-07T00:55:53.522Z,3.22
2023-04-07T00:56:06.989Z,3.22
2023-04-07T00:56:19.736Z,3.22
2023-04-07T00:56:32.237Z,3.20
2023-04-07T00:56:44.663Z,3.22
2023-04-07T00:56:57.838Z,3.22
2023-04-07T00:57:10.125Z,3.25
2023-04-07T00:57:23.454Z,3.24
2023-04-07T00:57:35.414Z,3.25
2023-04-07T00:57:48.302Z,3.25
2023-04-07T00:58:00.803Z,3.26
2023-04-07T00:58:13.119Z,3.25
2023-04-07T00:58:27.570Z,3.26
2023-04-07T00:58:39.914Z,3.25
2023-04-07T00:58:52.973Z,3.24
2023-04-07T00:59:05.398Z,3.26
2023-04-07T00:59:18.124Z,3.25
2023-04-07T00:59:30.690Z,3.26
2023-04-07T00:59:42.951Z,3.27
2023-04-07T00:59:55.954Z,3.27
2023-04-07T01:00:08.702Z,3.27
2023-04-07T01:00:21.033Z,3.28
2023-04-07T01:00:37.716Z,3.28
2023-04-07T01:00:54.728Z,3.28
2023-04-07T01:01:13.214Z,3.28
2023-04-07T01:01:28.159Z,3.28
2023-04-07T01:01:45.623Z,3.30
2023-04-07T01:02:04.152Z,3.29
2023-04-07T01:02:21.694Z,3.29
2023-04-07T01:02:41.757Z,3.30
2023-04-07T01:02:59.658Z,3.31
2023-04-07T01:03:19.292Z,3.30
2023-04-07T01:03:36.825Z,3.31
2023-04-07T01:03:54.942Z,3.31
2023-04-07T01:04:12.813Z,3.31
2023-04-07T01:04:31.400Z,3.31
2023-04-07T01:04:48.125Z,3.31
2023-04-07T01:05:09.545Z,3.32
2023-04-07T01:05:30.955Z,3.33
2023-04-07T01:05:50.290Z,3.33
2023-04-07T01:06:08.244Z,3.34
2023-04-07T01:06:26.833Z,3.34
2023-04-07T01:06:44.434Z,3.32
2023-04-07T01:07:04.030Z,3.29
2023-04-07T01:07:28.164Z,3.27
2023-04-07T01:07:57.470Z,3.27
2023-04-07T01:08:15.018Z,3.28
2023-04-07T01:08:37.264Z,3.28
2023-04-07T01:08:54.227Z,3.27
2023-04-07T01:09:10.966Z,3.27
2023-04-07T01:09:30.528Z,3.28
2023-04-07T01:09:48.371Z,3.27
2023-04-07T01:10:05.411Z,3.26
2023-04-07T01:10:33.281Z,3.26
2023-04-07T01:10:52.980Z,3.24
2023-04-07T01:11:12.674Z,3.22
2023-04-07T01:11:28.430Z,3.22
2023-04-07T01:11:44.513Z,3.20
2023-04-07T01:12:08.985Z,3.20
2023-04-07T01:12:29.019Z,3.20
2023-04-07T01:12:52.968Z,3.20
2023-04-07T01:13:17.317Z,3.19
2023-04-07T01:13:34.522Z,3.19
2023-04-07T01:13:55.213Z,3.18
2023-04-07T01:14:18.506Z,3.18
2023-04-07T01:14:46.055Z,3.18
2023-04-07T01:15:28.235Z,3.17
2023-04-07T01:15:45.301Z,3.17
2023-04-07T01:16:00.985Z,3.16
2023-04-07T01:16:23.082Z,3.16
2023-04-07T01:16:42.723Z,3.17
2023-04-07T01:16:58.206Z,3.15
2023-04-07T01:17:12.228Z,3.14
2023-04-07T01:17:27.014Z,3.12
2023-04-07T01:17:45.311Z,3.12
2023-04-07T01:18:05.859Z,3.13
2023-04-07T01:18:25.150Z,3.11
2023-04-07T01:18:39.167Z,3.12
2023-04-07T01:18:54.377Z,3.10
2023-04-07T01:19:15.867Z,3.08
2023-04-07T01:19:36.534Z,3.07
2023-04-07T01:19:58.408Z,3.07
2023-04-07T01:20:16.355Z,3.07
2023-04-07T01:20:33.983Z,3.08
2023-04-07T01:20:50.115Z,3.07
2023-04-07T01:21:07.976Z,3.05
2023-04-07T01:21:25.081Z,3.06
2023-04-07T01:21:39.720Z,3.04
2023-04-07T01:21:55.795Z,3.04
2023-04-07T01:22:11.575Z,3.02
2023-04-07T01:22:29.106Z,3.02
2023-04-07T01:22:44.729Z,3.03
2023-04-07T01:23:02.255Z,3.02
2023-04-07T01:23:22.270Z,3.01
2023-04-07T01:23:49.465Z,3.00
2023-04-07T01:24:12.613Z,3.00
2023-04-07T01:24:54.600Z,2.99
2023-04-07T01:25:23.409Z,2.97
2023-04-07T01:25:53.806Z,2.98
2023-04-07T01:26:17.767Z,2.97
2023-04-07T01:26:32.823Z,2.97
2023-04-07T01:26:47.306Z,2.99
2023-04-07T01:27:13.803Z,2.97
2023-04-07T01:27:37.732Z,2.95
2023-04-07T01:27:59.752Z,2.96
2023-04-07T01:28:28.591Z,2.97
2023-04-07T01:29:07.626Z,2.96
2023-04-07T01:29:35.266Z,2.97
2023-04-07T01:29:48.920Z,2.97
2023-04-07T01:30:04.358Z,2.97
2023-04-07T01:30:17.969Z,2.97
2023-04-07T01:30:34.792Z,2.98
2023-04-07T01:30:48.257Z,2.97
2023-04-07T01:31:01.915Z,2.97
2023-04-07T01:31:15.775Z,3.00
2023-04-07T01:31:29.423Z,2.99
2023-04-07T01:31:42.822Z,2.99
2023-04-07T01:31:58.329Z,2.99
2023-04-07T01:32:12.438Z,2.98
2023-04-07T01:32:27.033Z,3.00
2023-04-07T01:32:41.849Z,3.00
2023-04-07T01:32:58.421Z,2.99
2023-04-07T01:33:12.024Z,3.01
2023-04-07T01:33:27.183Z,3.00
2023-04-07T01:33:43.885Z,3.01
2023-04-07T01:33:58.624Z,3.00
2023-04-07T01:34:13.773Z,3.01
2023-04-07T01:34:27.319Z,3.01
2023-04-07T01:34:42.048Z,3.01
2023-04-07T01:34:56.022Z,3.01
2023-04-07T01:35:12.695Z,3.02
2023-04-07T01:35:27.168Z,3.02
2023-04-07T01:35:41.100Z,3.01
2023-04-07T01:35:55.380Z,3.02
2023-04-07T01:36:09.581Z,3.02
2023-04-07T01:36:22.413Z,3.03
2023-04-07T01:36:35.412Z,3.03
2023-04-07T01:36:49.940Z,3.04
2023-04-07T01:37:03.950Z,3.03
2023-04-07T01:37:17.596Z,3.04
2023-04-07T01:37:30.819Z,3.05
2023-04-07T01:37:44.352Z,3.05
2023-04-07T01:37:57.241Z,3.06
2023-04-07T01:38:11.229Z,3.05
2023-04-07T01:38:25.264Z,3.06
2023-04-07T01:38:39.118Z,3.06
2023-04-07T01:38:52.426Z,3.06
2023-04-07T01:39:06.594Z,3.05
2023-04-07T01:39:19.809Z,3.05
2023-04-07T01:39:33.426Z,3.07
2023-04-07T01:39:46.568Z,3.08
2023-04-07T01:39:58.684Z,3.08
2023-04-07T01:40:12.403Z,3.08
2023-04-07T01:40:25.792Z,3.09
2023-04-07T01:40:40.051Z,3.09
2023-04-07T01:40:53.256Z,3.10
2023-04-07T01:41:07.630Z,3.09
2023-04-07T01:41:19.879Z,3.09
2023-04-07T01:41:33.340Z,3.09
2023-04-07T01:41:47.195Z,3.10
2023-04-07T01:42:00.686Z,3.10
2023-04-07T01:42:14.082Z,3.10
2023-04-07T01:42:26.667Z,3.11
2023-04-07T01:42:41.557Z,3.11
2023-04-07T01:42:57.343Z,3.11
2023-04-07T01:43:10.235Z,3.12
2023-04-07T01:43:25.496Z,3.10
2023-04-07T01:43:39.242Z,3.12
2023-04-07T01:43:53.681Z,3.12
2023-04-07T01:44:08.022Z,3.12
2023-04-07T01:44:20.967Z,3.11
2023-04-07T01:44:35.609Z,3.12
2023-04-07T01:44:48.735Z,3.11
2023-04-07T01:45:01.912Z,3.10
2023-04-07T01:45:16.334Z,3.11
2023-04-07T01:45:30.669Z,3.11
2023-04-07T01:45:44.306Z,3.11
2023-04-07T01:45:58.105Z,3.11
2023-04-07T01:46:10.618Z,3.12
2023-04-07T01:46:22.623Z,3.12
2023-04-07T01:46:35.916Z,3.13
2023-04-07T01:46:51.285Z,3.12
2023-04-07T01:47:03.847Z,3.12
2023-04-07T01:47:17.056Z,3.11
2023-04-07T01:47:30.570Z,3.13
2023-04-07T01:47:43.743Z,3.12
2023-04-07T01:47:56.616Z,3.13
2023-04-07T01:48:10.432Z,3.12
2023-04-07T01:48:23.095Z,3.13
2023-04-07T01:48:36.141Z,3.13
2023-04-07T01:48:49.259Z,3.13
2023-04-07T01:49:02.919Z,3.16
2023-04-07T01:49:15.612Z,3.15
2023-04-07T01:49:30.372Z,3.13
2023-04-07T01:49:44.541Z,3.14
2023-04-07T01:49:57.999Z,3.15
2023-04-07T01:50:12.893Z,3.15
2023-04-07T01:50:26.003Z,3.15
2023-04-07T01:50:38.552Z,3.16
2023-04-07T01:50:52.591Z,3.14
2023-04-07T01:51:05.968Z,3.16
2023-04-07T01:51:19.975Z,3.15
2023-04-07T01:51:34.165Z,3.15
2023-04-07T01:51:46.796Z,3.14
2023-04-07T01:51:59.838Z,3.14
2023-04-07T01:52:12.469Z,3.14
2023-04-07T01:52:26.374Z,3.15
2023-04-07T01:52:39.635Z,3.16
2023-04-07T01:52:52.865Z,3.14
2023-04-07T01:53:05.686Z,3.16
2023-04-07T01:53:18.794Z,3.17
2023-04-07T01:53:32.260Z,3.16
2023-04-07T01:53:45.993Z,3.17
2023-04-07T01:53:59.088Z,3.17
2023-04-07T01:54:11.229Z,3.16
2023-04-07T01:54:24.015Z,3.16
2023-04-07T01:54:38.264Z,3.17
2023-04-07T01:54:51.282Z,3.17
2023-04-07T01:55:04.261Z,3.16
2023-04-07T01:55:18.882Z,3.16
2023-04-07T01:55:47.358Z,3.17
2023-04-07T01:56:00.542Z,3.18
2023-04-07T01:56:13.181Z,3.17
2023-04-07T01:56:25.204Z,3.17
2023-04-07T01:56:39.857Z,3.17
2023-04-07T01:56:52.332Z,3.17
2023-04-07T01:57:06.386Z,3.18
2023-04-07T01:57:18.791Z,3.18
2023-04-07T01:57:32.256Z,3.18
2023-04-07T01:57:54.204Z,3.18
2023-04-07T01:58:07.406Z,3.18
2023-04-07T01:58:21.590Z,3.16
2023-04-07T01:58:33.516Z,3.18
2023-04-07T01:58:45.468Z,3.18
2023-04-07T01:59:02.270Z,3.18
2023-04-07T01:59:15.099Z,3.18
2023-04-07T01:59:28.057Z,3.17
2023-04-07T01:59:42.913Z,3.18
2023-04-07T01:59:55.269Z,3.19
2023-04-07T02:00:11.571Z,3.18
2023-04-07T02:00:34.368Z,3.18
2023-04-07T02:00:48.969Z,3.18
2023-04-07T02:01:05.464Z,3.18
2023-04-07T02:01:18.320Z,3.17
2023-04-07T02:01:31.005Z,3.19
2023-04-07T02:01:43.890Z,3.19
2023-04-07T02:01:56.658Z,3.19
2023-04-07T02:02:08.968Z,3.19
2023-04-07T02:02:22.166Z,3.19
2023-04-07T02:02:42.671Z,3.19
2023-04-07T02:03:05.327Z,3.17
2023-04-07T02:03:23.298Z,3.19
2023-04-07T02:03:43.365Z,3.17
2023-04-07T02:04:02.186Z,3.17
2023-04-07T02:04:22.399Z,3.17
2023-04-07T02:04:40.377Z,3.16
2023-04-07T02:04:56.804Z,3.16
2023-04-07T02:05:13.454Z,3.16
2023-04-07T02:05:30.377Z,3.16
2023-04-07T02:05:44.055Z,3.15
2023-04-07T02:06:04.238Z,3.16
2023-04-07T02:06:32.430Z,3.14
2023-04-07T02:06:52.201Z,3.16
2023-04-07T02:07:11.063Z,3.16
2023-04-07T02:07:31.974Z,3.17
2023-04-07T02:07:51.893Z,3.16
2023-04-07T02:08:08.698Z,3.16
2023-04-07T02:08:24.322Z,3.16
2023-04-07T02:08:39.569Z,3.18
2023-04-07T02:08:55.821Z,3.19
2023-04-07T02:09:13.363Z,3.18
2023-04-07T02:09:27.996Z,3.20
2023-04-07T02:09:42.794Z,3.20
2023-04-07T02:10:00.815Z,3.20
2023-04-07T02:10:15.669Z,3.22
2023-04-07T02:10:30.005Z,3.21
2023-04-07T02:10:47.831Z,3.21
2023-04-07T02:11:01.768Z,3.20
2023-04-07T02:11:18.550Z,3.22
2023-04-07T02:11:34.211Z,3.22
2023-04-07T02:11:54.975Z,3.22
2023-04-07T02:12:14.795Z,3.22
2023-04-07T02:12:38.288Z,3.22
2023-04-07T02:13:00.834Z,3.22
2023-04-07T02:13:18.915Z,3.22
2023-04-07T02:13:34.250Z,3.21
2023-04-07T02:13:48.039Z,3.21
2023-04-07T02:14:04.143Z,3.21
2023-04-07T02:14:22.174Z,3.20
2023-04-07T02:14:46.883Z,3.21
2023-04-07T02:15:01.254Z,3.19
2023-04-07T02:15:16.412Z,3.20
2023-04-07T02:15:30.566Z,3.19
2023-04-07T02:15:44.379Z,3.18
2023-04-07T02:15:57.147Z,3.18
2023-04-07T02:16:10.595Z,3.19
2023-04-07T02:16:23.461Z,3.19
2023-04-07T02:16:39.633Z,3.18
2023-04-07T02:16:54.124Z,3.17
2023-04-07T02:17:06.709Z,3.18
2023-04-07T02:17:19.531Z,3.17
2023-04-07T02:17:34.792Z,3.17
2023-04-07T02:17:52.017Z,3.17
2023-04-07T02:18:06.925Z,3.16
2023-04-07T02:18:20.726Z,3.16
2023-04-07T02:18:33.660Z,3.14
2023-04-07T02:18:47.370Z,3.14
2023-04-07T02:19:00.134Z,3.13
2023-04-07T02:19:12.843Z,3.14
2023-04-07T02:19:25.418Z,3.12
2023-04-07T02:19:37.857Z,3.13
2023-04-07T02:19:52.907Z,3.11
2023-04-07T02:20:08.425Z,3.09
2023-04-07T02:20:23.859Z,3.10
2023-04-07T02:20:37.895Z,3.10
2023-04-07T02:20:52.157Z,3.09
2023-04-07T02:21:05.606Z,3.08
2023-04-07T02:21:19.212Z,3.08
2023-04-07T02:21:33.213Z,3.07
2023-04-07T02:21:46.232Z,3.07
2023-04-07T02:22:00.670Z,3.06
2023-04-07T02:22:13.730Z,3.06
2023-04-07T02:22:27.369Z,3.06
2023-04-07T02:22:40.383Z,3.06
2023-04-07T02:22:52.910Z,3.06
2023-04-07T02:23:07.536Z,3.04
2023-04-07T02:23:21.581Z,3.04
2023-04-07T02:23:35.884Z,3.04
2023-04-07T02:23:49.910Z,3.04
2023-04-07T02:24:02.275Z,3.04
2023-04-07T02:24:14.505Z,3.04
2023-04-07T02:24:27.562Z,3.02
2023-04-07T02:24:41.782Z,3.04
2023-04-07T02:24:54.116Z,3.03
2023-04-07T02:25:24.965Z,3.02
2023-04-07T02:25:39.333Z,3.03
2023-04-07T02:25:51.529Z,3.03
2023-04-07T02:26:05.815Z,3.01
2023-04-07T02:26:18.535Z,3.02
2023-04-07T02:26:35.403Z,3.02
2023-04-07T02:26:47.584Z,3.01
2023-04-07T02:27:00.039Z,3.02
2023-04-07T02:27:12.695Z,3.01
2023-04-07T02:27:25.153Z,3.02
2023-04-07T02:27:39.062Z,3.01
2023-04-07T02:27:50.927Z,3.01
2023-04-07T02:28:04.611Z,3.00
2023-04-07T02:28:17.430Z,3.00
2023-04-07T02:28:30.861Z,2.99
2023-04-07T02:28:42.891Z,3.00
2023-04-07T02:28:55.787Z,3.00
2023-04-07T02:29:08.327Z,2.99
2023-04-07T02:29:22.509Z,3.00
2023-04-07T02:29:34.732Z,3.00
2023-04-07T02:29:48.875Z,2.99
2023-04-07T02:30:01.166Z,2.99
2023-04-07T02:30:14.855Z,3.00
2023-04-07T02:30:28.134Z,3.00
2023-04-07T02:30:42.278Z,3.00
2023-04-07T02:30:54.765Z,2.98
2023-04-07T02:31:06.809Z,2.98
2023-04-07T02:31:19.285Z,2.99
2023-04-07T02:31:31.179Z,2.99
2023-04-07T02:31:43.313Z,2.98
2023-04-07T02:31:56.428Z,3.00
2023-04-07T02:32:09.222Z,2.97
2023-04-07T02:32:22.261Z,2.99
2023-04-07T02:32:34.789Z,3.00
2023-04-07T02:32:47.436Z,2.98
2023-04-07T02:32:59.861Z,2.99
2023-04-07T02:33:12.660Z,3.00
2023-04-07T02:33:24.983Z,3.00
2023-04-07T02:33:37.608Z,3.00
2023-04-07T02:33:51.018Z,3.00
2023-04-07T02:34:03.178Z,3.01
2023-04-07T02:34:17.487Z,3.01
2023-04-07T02:34:30.386Z,3.01
2023-04-07T02:34:42.619Z,3.01
2023-04-07T02:34:55.072Z,3.02
2023-04-07T02:35:08.009Z,3.01
2023-04-07T02:35:20.711Z,3.02
2023-04-07T02:35:33.216Z,3.02
2023-04-07T02:35:47.867Z,3.05
2023-04-07T02:35:59.853Z,3.05
2023-04-07T02:36:13.784Z,3.05
2023-04-07T02:36:26.188Z,3.05
2023-04-07T02:36:38.810Z,3.05
2023-04-07T02:36:52.522Z,3.06
2023-04-07T02:37:05.569Z,3.07
2023-04-07T02:37:19.763Z,3.07
2023-04-07T02:37:31.591Z,3.07
2023-04-07T02:37:44.256Z,3.07
2023-04-07T02:37:56.345Z,3.09
2023-04-07T02:38:08.915Z,3.09
2023-04-07T02:38:21.521Z,3.10
2023-04-07T02:38:33.907Z,3.10
2023-04-07T02:38:46.325Z,3.11
2023-04-07T02:38:59.790Z,3.11
2023-04-07T02:39:12.766Z,3.12
2023-04-07T02:39:27.561Z,3.12
2023-04-07T02:39:40.587Z,3.13
2023-04-07T02:39:53.546Z,3.12
2023-04-07T02:40:07.879Z,3.11
2023-04-07T02:40:20.344Z,3.12
2023-04-07T02:40:32.807Z,3.12
2023-04-07T02:40:45.340Z,3.11
2023-04-07T02:40:57.900Z,3.12
2023-04-07T02:41:10.187Z,3.09
2023-04-07T02:41:22.330Z,3.12
2023-04-07T02:41:34.841Z,3.11
2023-04-07T02:41:47.090Z,3.11
2023-04-07T02:41:59.988Z,3.11
2023-04-07T02:42:15.097Z,3.10
2023-04-07T02:42:27.751Z,3.12
2023-04-07T02:42:41.271Z,3.13
2023-04-07T02:42:53.569Z,3.13
2023-04-07T02:43:08.439Z,3.14
2023-04-07T02:43:20.353Z,3.13
2023-04-07T02:43:32.826Z,3.14
2023-04-07T02:43:45.884Z,3.14
2023-04-07T02:43:58.337Z,3.15
2023-04-07T02:44:10.411Z,3.16
2023-04-07T02:44:22.517Z,3.16
2023-04-07T02:44:34.795Z,3.17
2023-04-07T02:44:49.164Z,3.18
2023-04-07T02:45:01.540Z,3.18
2023-04-07T02:45:13.648Z,3.18
2023-04-07T02:45:26.059Z,3.19
2023-04-07T02:45:38.709Z,3.20
2023-04-07T02:45:50.807Z,3.20
2023-04-07T02:46:02.972Z,3.20
2023-04-07T02:46:16.656Z,3.20
2023-04-07T02:46:29.234Z,3.20
2023-04-07T02:46:43.085Z,3.18
2023-04-07T02:46:56.288Z,3.18
2023-04-07T02:47:09.340Z,3.20
2023-04-07T02:47:22.297Z,3.17
2023-04-07T02:47:35.278Z,3.16
2023-04-07T02:47:48.142Z,3.18
2023-04-07T02:48:03.895Z,3.17
2023-04-07T02:48:15.870Z,3.17
2023-04-07T02:48:28.529Z,3.18
2023-04-07T02:48:40.983Z,3.18
2023-04-07T02:48:55.152Z,3.18
2023-04-07T02:49:07.149Z,3.16
2023-04-07T02:49:20.379Z,3.16
2023-04-07T02:49:33.390Z,3.15
2023-04-07T02:49:45.800Z,3.15
2023-04-07T02:49:57.931Z,3.16
2023-04-07T02:50:13.827Z,3.16
2023-04-07T02:50:26.523Z,3.15
2023-04-07T02:50:38.710Z,3.16
2023-04-07T02:50:50.502Z,3.17
2023-04-07T02:51:03.073Z,3.15
2023-04-07T02:51:15.287Z,3.16
2023-04-07T02:51:27.353Z,3.16
2023-04-07T02:51:39.437Z,3.16
2023-04-07T02:51:52.000Z,3.17
2023-04-07T02:52:04.729Z,3.17
2023-04-07T02:52:16.743Z,3.17
2023-04-07T02:52:28.972Z,3.17
2023-04-07T02:52:41.321Z,3.17
2023-04-07T02:52:57.431Z,3.18
2023-04-07T02:53:09.758Z,3.18
2023-04-07T02:53:22.534Z,3.19
2023-04-07T02:53:36.100Z,3.20
2023-04-07T02:53:49.431Z,3.19
2023-04-07T02:54:01.703Z,3.19
2023-04-07T02:54:14.024Z,3.19
2023-04-07T02:54:26.189Z,3.19
2023-04-07T02:54:38.599Z,3.19
2023-04-07T02:54:51.141Z,3.19
2023-04-07T02:55:07.205Z,3.20
2023-04-07T02:55:19.821Z,3.20
2023-04-07T02:55:31.899Z,3.19
2023-04-07T02:55:44.164Z,3.19
2023-04-07T02:55:56.489Z,3.19
2023-04-07T02:56:08.658Z,3.19
2023-04-07T02:56:21.174Z,3.20
2023-04-07T02:56:33.586Z,3.20
2023-04-07T02:56:45.995Z,3.22
2023-04-07T02:56:58.415Z,3.22
2023-04-07T02:57:11.675Z,3.22
2023-04-07T02:57:24.631Z,3.22
2023-04-07T02:57:41.450Z,3.23
2023-04-07T02:58:06.740Z,3.25
2023-04-07T02:58:26.405Z,3.25
2023-04-07T02:58:39.029Z,3.26
2023-04-07T02:58:51.548Z,3.25
2023-04-07T02:59:04.489Z,3.26
2023-04-07T02:59:21.799Z,3.25
2023-04-07T02:59:34.340Z,3.25
2023-04-07T02:59:49.684Z,3.26
2023-04-07T03:00:02.171Z,3.26
2023-04-07T03:00:29.329Z,3.26
2023-04-07T03:00:50.968Z,3.26
2023-04-07T03:01:07.124Z,3.27
2023-04-07T03:01:20.798Z,3.27
2023-04-07T03:01:33.591Z,3.26
2023-04-07T03:01:46.116Z,3.28
2023-04-07T03:01:58.771Z,3.26
2023-04-07T03:02:11.130Z,3.25
2023-04-07T03:02:23.679Z,3.25
2023-04-07T03:02:36.476Z,3.25
2023-04-07T03:02:49.291Z,3.26
2023-04-07T03:03:03.766Z,3.26
2023-04-07T03:03:20.457Z,3.26
2023-04-07T03:03:45.251Z,3.25
2023-04-07T03:04:02.554Z,3.26
2023-04-07T03:04:15.238Z,3.27
2023-04-07T03:04:29.069Z,3.26
2023-04-07T03:04:43.841Z,3.27
2023-04-07T03:04:56.280Z,3.26
2023-04-07T03:05:12.284Z,3.28
2023-04-07T03:05:24.993Z,3.28
2023-04-07T03:05:37.800Z,3.29
2023-04-07T03:05:51.260Z,3.29
2023-04-07T03:06:03.648Z,3.30
2023-04-07T03:06:17.435Z,3.29
2023-04-07T03:06:53.182Z,3.30
2023-04-07T03:07:06.232Z,3.29
2023-04-07T03:07:19.141Z,3.29
2023-04-07T03:07:33.169Z,3.30
2023-04-07T03:07:47.306Z,3.30
2023-04-07T03:07:59.524Z,3.31
2023-04-07T03:08:13.076Z,3.30
2023-04-07T03:08:26.438Z,3.31
2023-04-07T03:08:40.164Z,3.31
2023-04-07T03:08:52.496Z,3.31
2023-04-07T03:09:05.284Z,3.30
2023-04-07T03:09:18.770Z,3.30
2023-04-07T03:09:31.127Z,3.30
2023-04-07T03:09:43.743Z,3.30
2023-04-07T03:09:57.703Z,3.31
2023-04-07T03:10:10.704Z,3.31
2023-04-07T03:10:23.428Z,3.29
2023-04-07T03:10:36.261Z,3.31